sensor_id;sensor_type;location;lat;lon;timestamp;P1;durP1;ratioP1;P2;durP2;ratioP2
70369;SDS011;57790;51.356;-2.906;2023-05-10T00:00:08;7.30;;;1.07;;
70369;SDS011;57790;51.356;-2.906;2023-05-10T00:03:09;7.35;;;1.30;;
70369;SDS011;57790;51.356;-2.906;2023-05-10T00:06:09;7.03;;;1.27;;
70369;SDS011;57790;51.356;-2.906;2023-05-10T00:09:10;6.40;;;1.20;;
70369;SDS011;57790;51.356;-2.906;2023-05-10T00:12:10;9.33;;;1.63;;
70369;SDS011;57790;51.356;-2.906;2023-05-10T00:15:10;6.70;;;1.30;;
70369;SDS011;57790;51.356;-2.906;2023-05-10T00:18:11;4.73;;;1.10;;
70369;SDS011;57790;51.356;-2.906;2023-05-10T00:21:11;7.10;;;1.23;;
70369;SDS011;57790;51.356;-2.906;2023-05-10T00:24:12;6.27;;;0.80;;
70369;SDS011;57790;51.356;-2.906;2023-05-10T00:27:12;6.60;;;1.20;;
70369;SDS011;57790;51.356;-2.906;2023-05-10T00:30:12;5.80;;;1.00;;
70369;SDS011;57790;51.356;-2.906;2023-05-10T00:33:13;8.32;;;1.08;;
70369;SDS011;57790;51.356;-2.906;2023-05-10T00:36:13;7.90;;;1.20;;
70369;SDS011;57790;51.356;-2.906;2023-05-10T00:39:14;7.23;;;1.07;;
70369;SDS011;57790;51.356;-2.906;2023-05-10T00:42:14;4.67;;;1.00;;
70369;SDS011;57790;51.356;-2.906;2023-05-10T00:45:15;8.70;;;1.40;;
70369;SDS011;57790;51.356;-2.906;2023-05-10T00:48:15;5.63;;;1.27;;
70369;SDS011;57790;51.356;-2.906;2023-05-10T00:51:16;7.65;;;1.45;;
70369;SDS011;57790;51.356;-2.906;2023-05-10T00:54:17;6.57;;;1.20;;
70369;SDS011;57790;51.356;-2.906;2023-05-10T00:57:17;6.43;;;1.23;;
70369;SDS011;57790;51.356;-2.906;2023-05-10T01:00:18;8.43;;;1.23;;
70369;SDS011;57790;51.356;-2.906;2023-05-10T01:03:19;7.00;;;1.17;;
70369;SDS011;57790;51.356;-2.906;2023-05-10T01:06:19;6.27;;;1.20;;
70369;SDS011;57790;51.356;-2.906;2023-05-10T01:09:22;7.67;;;1.10;;
70369;SDS011;57790;51.356;-2.906;2023-05-10T01:12:26;8.60;;;1.50;;
70369;SDS011;57790;51.356;-2.906;2023-05-10T01:15:26;5.07;;;1.02;;
70369;SDS011;57790;51.356;-2.906;2023-05-10T01:18:27;8.70;;;1.20;;
70369;SDS011;57790;51.356;-2.906;2023-05-10T01:21:33;9.68;;;1.33;;
70369;SDS011;57790;51.356;-2.906;2023-05-10T01:31:39;6.57;;;1.05;;
70369;SDS011;57790;51.356;-2.906;2023-05-10T01:38:32;7.10;;;1.27;;
70369;SDS011;57790;51.356;-2.906;2023-05-10T01:42:03;7.07;;;1.33;;
70369;SDS011;57790;51.356;-2.906;2023-05-10T01:45:21;10.80;;;1.60;;
70369;SDS011;57790;51.356;-2.906;2023-05-10T01:48:28;6.97;;;1.30;;
70369;SDS011;57790;51.356;-2.906;2023-05-10T01:51:36;10.82;;;1.20;;
70369;SDS011;57790;51.356;-2.906;2023-05-10T01:54:46;9.00;;;1.55;;
70369;SDS011;57790;51.356;-2.906;2023-05-10T01:57:56;9.75;;;1.65;;
70369;SDS011;57790;51.356;-2.906;2023-05-10T02:01:03;10.03;;;1.50;;
70369;SDS011;57790;51.356;-2.906;2023-05-10T02:04:08;10.55;;;1.75;;
70369;SDS011;57790;51.356;-2.906;2023-05-10T02:07:11;11.85;;;1.95;;
70369;SDS011;57790;51.356;-2.906;2023-05-10T02:10:12;10.18;;;1.70;;
70369;SDS011;57790;51.356;-2.906;2023-05-10T02:13:14;10.30;;;1.50;;
70369;SDS011;57790;51.356;-2.906;2023-05-10T02:16:17;10.30;;;1.40;;
70369;SDS011;57790;51.356;-2.906;2023-05-10T02:19:21;8.50;;;1.60;;
70369;SDS011;57790;51.356;-2.906;2023-05-10T02:22:23;11.95;;;1.63;;
70369;SDS011;57790;51.356;-2.906;2023-05-10T02:25:25;7.18;;;1.55;;
70369;SDS011;57790;51.356;-2.906;2023-05-10T02:28:28;10.82;;;1.63;;
70369;SDS011;57790;51.356;-2.906;2023-05-10T02:31:32;9.90;;;1.47;;
70369;SDS011;57790;51.356;-2.906;2023-05-10T02:34:35;8.02;;;1.55;;
70369;SDS011;57790;51.356;-2.906;2023-05-10T02:37:36;10.68;;;2.30;;
70369;SDS011;57790;51.356;-2.906;2023-05-10T02:40:38;10.65;;;1.85;;
70369;SDS011;57790;51.356;-2.906;2023-05-10T02:43:41;11.65;;;1.95;;
70369;SDS011;57790;51.356;-2.906;2023-05-10T02:46:42;13.83;;;1.93;;
70369;SDS011;57790;51.356;-2.906;2023-05-10T02:49:43;14.52;;;2.15;;
70369;SDS011;57790;51.356;-2.906;2023-05-10T02:52:45;18.83;;;2.07;;
70369;SDS011;57790;51.356;-2.906;2023-05-10T02:55:50;10.75;;;1.90;;
70369;SDS011;57790;51.356;-2.906;2023-05-10T02:58:52;10.15;;;1.88;;
70369;SDS011;57790;51.356;-2.906;2023-05-10T03:01:53;10.47;;;2.07;;
70369;SDS011;57790;51.356;-2.906;2023-05-10T03:04:53;10.65;;;1.95;;
70369;SDS011;57790;51.356;-2.906;2023-05-10T03:07:54;8.03;;;1.70;;
70369;SDS011;57790;51.356;-2.906;2023-05-10T03:11:01;11.73;;;2.17;;
70369;SDS011;57790;51.356;-2.906;2023-05-10T03:20:49;11.80;;;1.95;;
70369;SDS011;57790;51.356;-2.906;2023-05-10T03:24:15;11.15;;;2.33;;
70369;SDS011;57790;51.356;-2.906;2023-05-10T03:27:16;10.77;;;2.20;;
70369;SDS011;57790;51.356;-2.906;2023-05-10T03:30:17;11.27;;;2.27;;
70369;SDS011;57790;51.356;-2.906;2023-05-10T03:33:19;10.52;;;2.08;;
70369;SDS011;57790;51.356;-2.906;2023-05-10T03:36:20;12.65;;;1.90;;
70369;SDS011;57790;51.356;-2.906;2023-05-10T03:39:20;11.57;;;1.80;;
70369;SDS011;57790;51.356;-2.906;2023-05-10T03:42:21;12.63;;;2.13;;
70369;SDS011;57790;51.356;-2.906;2023-05-10T03:45:21;10.27;;;1.88;;
70369;SDS011;57790;51.356;-2.906;2023-05-10T03:48:22;13.17;;;2.00;;
70369;SDS011;57790;51.356;-2.906;2023-05-10T03:51:22;12.30;;;2.00;;
70369;SDS011;57790;51.356;-2.906;2023-05-10T03:54:23;12.97;;;1.80;;
70369;SDS011;57790;51.356;-2.906;2023-05-10T03:57:23;9.67;;;1.70;;
70369;SDS011;57790;51.356;-2.906;2023-05-10T04:00:24;13.07;;;2.07;;
70369;SDS011;57790;51.356;-2.906;2023-05-10T04:03:24;10.37;;;2.03;;
70369;SDS011;57790;51.356;-2.906;2023-05-10T04:06:26;12.80;;;1.77;;
70369;SDS011;57790;51.356;-2.906;2023-05-10T04:09:26;11.53;;;2.00;;
70369;SDS011;57790;51.356;-2.906;2023-05-10T04:12:27;12.03;;;2.13;;
70369;SDS011;57790;51.356;-2.906;2023-05-10T04:15:27;12.18;;;2.22;;
70369;SDS011;57790;51.356;-2.906;2023-05-10T04:18:27;9.70;;;2.00;;
70369;SDS011;57790;51.356;-2.906;2023-05-10T04:21:28;10.70;;;2.10;;
70369;SDS011;57790;51.356;-2.906;2023-05-10T04:24:28;9.87;;;1.70;;
70369;SDS011;57790;51.356;-2.906;2023-05-10T04:27:29;12.90;;;2.20;;
70369;SDS011;57790;51.356;-2.906;2023-05-10T04:30:29;9.83;;;1.97;;
70369;SDS011;57790;51.356;-2.906;2023-05-10T04:33:30;12.73;;;2.20;;
70369;SDS011;57790;51.356;-2.906;2023-05-10T04:36:31;12.00;;;2.30;;
70369;SDS011;57790;51.356;-2.906;2023-05-10T04:39:32;11.33;;;2.30;;
70369;SDS011;57790;51.356;-2.906;2023-05-10T04:42:32;10.02;;;1.73;;
70369;SDS011;57790;51.356;-2.906;2023-05-10T04:45:33;10.27;;;1.80;;
70369;SDS011;57790;51.356;-2.906;2023-05-10T04:48:33;12.03;;;2.13;;
70369;SDS011;57790;51.356;-2.906;2023-05-10T04:51:34;10.20;;;1.80;;
70369;SDS011;57790;51.356;-2.906;2023-05-10T04:54:34;10.50;;;1.90;;
70369;SDS011;57790;51.356;-2.906;2023-05-10T04:57:35;8.13;;;1.67;;
70369;SDS011;57790;51.356;-2.906;2023-05-10T05:00:35;8.60;;;1.27;;
70369;SDS011;57790;51.356;-2.906;2023-05-10T05:03:36;9.53;;;1.90;;
70369;SDS011;57790;51.356;-2.906;2023-05-10T05:06:37;9.68;;;1.55;;
70369;SDS011;57790;51.356;-2.906;2023-05-10T05:09:37;9.70;;;2.07;;
70369;SDS011;57790;51.356;-2.906;2023-05-10T05:12:37;8.53;;;2.07;;
70369;SDS011;57790;51.356;-2.906;2023-05-10T05:15:38;12.10;;;1.90;;
70369;SDS011;57790;51.356;-2.906;2023-05-10T05:18:38;8.77;;;1.53;;
70369;SDS011;57790;51.356;-2.906;2023-05-10T05:21:39;12.85;;;1.80;;
70369;SDS011;57790;51.356;-2.906;2023-05-10T05:24:40;13.20;;;1.80;;
70369;SDS011;57790;51.356;-2.906;2023-05-10T05:27:40;10.18;;;1.63;;
70369;SDS011;57790;51.356;-2.906;2023-05-10T05:30:41;8.00;;;1.90;;
70369;SDS011;57790;51.356;-2.906;2023-05-10T05:33:41;8.13;;;1.83;;
70369;SDS011;57790;51.356;-2.906;2023-05-10T05:36:44;8.70;;;1.25;;
70369;SDS011;57790;51.356;-2.906;2023-05-10T05:39:45;9.87;;;1.37;;
70369;SDS011;57790;51.356;-2.906;2023-05-10T05:42:45;9.35;;;1.58;;
70369;SDS011;57790;51.356;-2.906;2023-05-10T05:45:46;10.77;;;1.83;;
70369;SDS011;57790;51.356;-2.906;2023-05-10T05:48:46;9.63;;;1.30;;
70369;SDS011;57790;51.356;-2.906;2023-05-10T05:51:47;12.03;;;1.97;;
70369;SDS011;57790;51.356;-2.906;2023-05-10T05:54:49;11.77;;;1.42;;
70369;SDS011;57790;51.356;-2.906;2023-05-10T05:57:49;11.43;;;1.53;;
70369;SDS011;57790;51.356;-2.906;2023-05-10T06:00:50;15.25;;;1.60;;
70369;SDS011;57790;51.356;-2.906;2023-05-10T06:03:51;8.13;;;1.30;;
70369;SDS011;57790;51.356;-2.906;2023-05-10T06:06:52;12.77;;;1.60;;
70369;SDS011;57790;51.356;-2.906;2023-05-10T06:09:52;9.53;;;1.20;;
70369;SDS011;57790;51.356;-2.906;2023-05-10T06:12:53;12.03;;;1.53;;
70369;SDS011;57790;51.356;-2.906;2023-05-10T06:15:53;12.73;;;1.67;;
70369;SDS011;57790;51.356;-2.906;2023-05-10T06:18:55;13.98;;;1.40;;
70369;SDS011;57790;51.356;-2.906;2023-05-10T06:21:55;8.97;;;1.27;;
70369;SDS011;57790;51.356;-2.906;2023-05-10T06:24:56;12.23;;;1.87;;
70369;SDS011;57790;51.356;-2.906;2023-05-10T06:27:56;8.82;;;1.38;;
70369;SDS011;57790;51.356;-2.906;2023-05-10T06:30:57;13.00;;;1.73;;
70369;SDS011;57790;51.356;-2.906;2023-05-10T06:33:58;11.30;;;1.70;;
70369;SDS011;57790;51.356;-2.906;2023-05-10T06:36:58;10.57;;;1.53;;
70369;SDS011;57790;51.356;-2.906;2023-05-10T06:39:59;14.93;;;1.63;;
70369;SDS011;57790;51.356;-2.906;2023-05-10T06:42:59;9.90;;;1.70;;
70369;SDS011;57790;51.356;-2.906;2023-05-10T06:45:59;9.90;;;1.23;;
70369;SDS011;57790;51.356;-2.906;2023-05-10T06:49:00;9.50;;;1.50;;
70369;SDS011;57790;51.356;-2.906;2023-05-10T06:52:00;13.82;;;1.77;;
70369;SDS011;57790;51.356;-2.906;2023-05-10T06:55:01;8.13;;;1.13;;
70369;SDS011;57790;51.356;-2.906;2023-05-10T06:58:02;10.30;;;1.50;;
70369;SDS011;57790;51.356;-2.906;2023-05-10T07:01:03;10.23;;;1.80;;
70369;SDS011;57790;51.356;-2.906;2023-05-10T07:04:04;12.80;;;1.50;;
70369;SDS011;57790;51.356;-2.906;2023-05-10T07:07:04;16.35;;;1.92;;
70369;SDS011;57790;51.356;-2.906;2023-05-10T07:10:05;11.07;;;1.60;;
70369;SDS011;57790;51.356;-2.906;2023-05-10T07:13:05;11.43;;;1.80;;
70369;SDS011;57790;51.356;-2.906;2023-05-10T07:16:06;10.80;;;1.70;;
70369;SDS011;57790;51.356;-2.906;2023-05-10T07:19:07;13.00;;;1.58;;
70369;SDS011;57790;51.356;-2.906;2023-05-10T07:22:08;13.07;;;1.67;;
70369;SDS011;57790;51.356;-2.906;2023-05-10T07:25:08;12.80;;;1.80;;
70369;SDS011;57790;51.356;-2.906;2023-05-10T07:28:09;11.50;;;1.85;;
70369;SDS011;57790;51.356;-2.906;2023-05-10T07:31:09;17.43;;;2.20;;
70369;SDS011;57790;51.356;-2.906;2023-05-10T07:34:10;12.17;;;2.13;;
70369;SDS011;57790;51.356;-2.906;2023-05-10T07:37:10;12.57;;;1.80;;
70369;SDS011;57790;51.356;-2.906;2023-05-10T07:40:11;13.63;;;2.00;;
70369;SDS011;57790;51.356;-2.906;2023-05-10T07:43:11;11.30;;;1.60;;
70369;SDS011;57790;51.356;-2.906;2023-05-10T07:46:12;10.40;;;1.30;;
70369;SDS011;57790;51.356;-2.906;2023-05-10T07:49:12;17.60;;;1.70;;
70369;SDS011;57790;51.356;-2.906;2023-05-10T07:52:13;15.20;;;1.88;;
70369;SDS011;57790;51.356;-2.906;2023-05-10T07:55:13;13.00;;;1.57;;
70369;SDS011;57790;51.356;-2.906;2023-05-10T07:58:14;15.55;;;2.10;;
70369;SDS011;57790;51.356;-2.906;2023-05-10T08:01:14;12.40;;;1.33;;
70369;SDS011;57790;51.356;-2.906;2023-05-10T08:04:15;11.50;;;1.57;;
70369;SDS011;57790;51.356;-2.906;2023-05-10T08:07:16;11.80;;;1.60;;
70369;SDS011;57790;51.356;-2.906;2023-05-10T08:10:16;12.57;;;2.15;;
70369;SDS011;57790;51.356;-2.906;2023-05-10T08:13:16;12.20;;;2.10;;
70369;SDS011;57790;51.356;-2.906;2023-05-10T08:16:17;20.50;;;2.27;;
70369;SDS011;57790;51.356;-2.906;2023-05-10T08:19:17;13.97;;;1.60;;
70369;SDS011;57790;51.356;-2.906;2023-05-10T08:22:19;14.43;;;1.95;;
70369;SDS011;57790;51.356;-2.906;2023-05-10T08:25:20;10.43;;;1.33;;
70369;SDS011;57790;51.356;-2.906;2023-05-10T08:28:20;14.55;;;1.85;;
70369;SDS011;57790;51.356;-2.906;2023-05-10T08:31:20;13.97;;;2.27;;
70369;SDS011;57790;51.356;-2.906;2023-05-10T08:34:21;10.40;;;1.43;;
70369;SDS011;57790;51.356;-2.906;2023-05-10T08:37:22;14.23;;;1.70;;
70369;SDS011;57790;51.356;-2.906;2023-05-10T08:40:23;11.25;;;1.83;;
70369;SDS011;57790;51.356;-2.906;2023-05-10T08:43:29;13.95;;;1.90;;
70369;SDS011;57790;51.356;-2.906;2023-05-10T08:46:30;13.77;;;2.17;;
70369;SDS011;57790;51.356;-2.906;2023-05-10T08:49:33;12.80;;;1.50;;
70369;SDS011;57790;51.356;-2.906;2023-05-10T08:52:34;16.27;;;1.85;;
70369;SDS011;57790;51.356;-2.906;2023-05-10T08:55:40;12.60;;;1.63;;
70369;SDS011;57790;51.356;-2.906;2023-05-10T08:58:42;10.90;;;1.75;;
70369;SDS011;57790;51.356;-2.906;2023-05-10T09:01:43;10.83;;;1.40;;
70369;SDS011;57790;51.356;-2.906;2023-05-10T09:04:45;13.80;;;1.58;;
70369;SDS011;57790;51.356;-2.906;2023-05-10T09:07:46;12.93;;;1.50;;
70369;SDS011;57790;51.356;-2.906;2023-05-10T09:10:47;11.47;;;1.30;;
70369;SDS011;57790;51.356;-2.906;2023-05-10T09:13:48;15.43;;;1.95;;
70369;SDS011;57790;51.356;-2.906;2023-05-10T09:16:50;8.70;;;1.17;;
70369;SDS011;57790;51.356;-2.906;2023-05-10T09:19:58;11.02;;;1.42;;
70369;SDS011;57790;51.356;-2.906;2023-05-10T09:22:59;13.25;;;1.95;;
70369;SDS011;57790;51.356;-2.906;2023-05-10T09:26:03;14.37;;;1.60;;
70369;SDS011;57790;51.356;-2.906;2023-05-10T09:29:04;12.10;;;1.60;;
70369;SDS011;57790;51.356;-2.906;2023-05-10T09:32:06;10.38;;;1.70;;
70369;SDS011;57790;51.356;-2.906;2023-05-10T09:35:09;11.50;;;1.60;;
70369;SDS011;57790;51.356;-2.906;2023-05-10T09:38:11;10.50;;;1.77;;
70369;SDS011;57790;51.356;-2.906;2023-05-10T09:41:23;11.30;;;1.40;;
70369;SDS011;57790;51.356;-2.906;2023-05-10T09:44:25;11.48;;;1.40;;
70369;SDS011;57790;51.356;-2.906;2023-05-10T09:47:26;13.43;;;1.50;;
70369;SDS011;57790;51.356;-2.906;2023-05-10T09:50:26;10.93;;;1.40;;
70369;SDS011;57790;51.356;-2.906;2023-05-10T09:53:27;9.45;;;1.52;;
70369;SDS011;57790;51.356;-2.906;2023-05-10T09:56:35;15.90;;;2.10;;
70369;SDS011;57790;51.356;-2.906;2023-05-10T09:59:38;15.75;;;1.77;;
70369;SDS011;57790;51.356;-2.906;2023-05-10T10:02:42;10.20;;;1.70;;
70369;SDS011;57790;51.356;-2.906;2023-05-10T10:05:46;13.38;;;1.50;;
70369;SDS011;57790;51.356;-2.906;2023-05-10T10:08:48;9.83;;;1.37;;
70369;SDS011;57790;51.356;-2.906;2023-05-10T10:11:48;13.90;;;1.70;;
70369;SDS011;57790;51.356;-2.906;2023-05-10T10:14:49;13.27;;;1.70;;
70369;SDS011;57790;51.356;-2.906;2023-05-10T10:17:51;11.65;;;1.52;;
70369;SDS011;57790;51.356;-2.906;2023-05-10T10:20:52;11.63;;;1.50;;
70369;SDS011;57790;51.356;-2.906;2023-05-10T10:23:54;11.77;;;1.55;;
70369;SDS011;57790;51.356;-2.906;2023-05-10T10:26:57;14.57;;;1.40;;
70369;SDS011;57790;51.356;-2.906;2023-05-10T10:36:50;14.52;;;1.70;;
70369;SDS011;57790;51.356;-2.906;2023-05-10T10:39:51;10.27;;;1.57;;
70369;SDS011;57790;51.356;-2.906;2023-05-10T10:42:52;15.13;;;1.87;;
70369;SDS011;57790;51.356;-2.906;2023-05-10T10:49:16;11.00;;;1.58;;
70369;SDS011;57790;51.356;-2.906;2023-05-10T10:52:30;9.97;;;1.53;;
70369;SDS011;57790;51.356;-2.906;2023-05-10T10:55:35;11.27;;;1.10;;
70369;SDS011;57790;51.356;-2.906;2023-05-10T10:58:48;11.25;;;1.17;;
70369;SDS011;57790;51.356;-2.906;2023-05-10T11:01:53;9.15;;;1.08;;
70369;SDS011;57790;51.356;-2.906;2023-05-10T11:04:53;9.97;;;1.67;;
70369;SDS011;57790;51.356;-2.906;2023-05-10T11:07:57;13.20;;;1.63;;
70369;SDS011;57790;51.356;-2.906;2023-05-10T11:14:06;9.00;;;1.20;;
70369;SDS011;57790;51.356;-2.906;2023-05-10T11:17:23;9.05;;;1.10;;
70369;SDS011;57790;51.356;-2.906;2023-05-10T11:20:28;10.47;;;1.10;;
70369;SDS011;57790;51.356;-2.906;2023-05-10T11:23:54;6.95;;;1.15;;
70369;SDS011;57790;51.356;-2.906;2023-05-10T11:26:57;7.85;;;1.23;;
70369;SDS011;57790;51.356;-2.906;2023-05-10T11:29:58;8.85;;;1.20;;
70369;SDS011;57790;51.356;-2.906;2023-05-10T11:32:58;8.30;;;1.00;;
70369;SDS011;57790;51.356;-2.906;2023-05-10T11:35:58;12.60;;;1.40;;
70369;SDS011;57790;51.356;-2.906;2023-05-10T11:38:59;8.20;;;1.10;;
70369;SDS011;57790;51.356;-2.906;2023-05-10T11:41:59;10.63;;;1.13;;
70369;SDS011;57790;51.356;-2.906;2023-05-10T11:45:00;12.53;;;1.30;;
70369;SDS011;57790;51.356;-2.906;2023-05-10T11:48:01;8.33;;;1.17;;
70369;SDS011;57790;51.356;-2.906;2023-05-10T11:51:02;8.73;;;1.08;;
70369;SDS011;57790;51.356;-2.906;2023-05-10T11:54:06;8.43;;;1.20;;
70369;SDS011;57790;51.356;-2.906;2023-05-10T11:57:11;7.22;;;1.00;;
70369;SDS011;57790;51.356;-2.906;2023-05-10T12:00:11;8.20;;;1.20;;
70369;SDS011;57790;51.356;-2.906;2023-05-10T12:03:13;8.40;;;1.20;;
70369;SDS011;57790;51.356;-2.906;2023-05-10T12:06:13;10.07;;;1.63;;
70369;SDS011;57790;51.356;-2.906;2023-05-10T12:09:13;9.85;;;1.40;;
70369;SDS011;57790;51.356;-2.906;2023-05-10T12:12:17;10.73;;;1.20;;
70369;SDS011;57790;51.356;-2.906;2023-05-10T12:15:22;8.38;;;1.10;;
70369;SDS011;57790;51.356;-2.906;2023-05-10T12:18:24;7.75;;;1.42;;
70369;SDS011;57790;51.356;-2.906;2023-05-10T12:21:25;8.85;;;1.00;;
70369;SDS011;57790;51.356;-2.906;2023-05-10T12:24:27;11.50;;;1.20;;
70369;SDS011;57790;51.356;-2.906;2023-05-10T12:27:31;7.90;;;0.95;;
70369;SDS011;57790;51.356;-2.906;2023-05-10T12:30:32;10.47;;;1.10;;
70369;SDS011;57790;51.356;-2.906;2023-05-10T12:33:40;11.15;;;1.23;;
70369;SDS011;57790;51.356;-2.906;2023-05-10T12:36:45;9.02;;;1.00;;
70369;SDS011;57790;51.356;-2.906;2023-05-10T12:39:45;7.47;;;1.20;;
70369;SDS011;57790;51.356;-2.906;2023-05-10T12:42:46;7.80;;;1.10;;
70369;SDS011;57790;51.356;-2.906;2023-05-10T12:45:46;8.73;;;1.13;;
70369;SDS011;57790;51.356;-2.906;2023-05-10T12:48:48;8.68;;;1.02;;
70369;SDS011;57790;51.356;-2.906;2023-05-10T12:51:54;9.30;;;1.20;;
70369;SDS011;57790;51.356;-2.906;2023-05-10T12:54:55;8.18;;;0.90;;
70369;SDS011;57790;51.356;-2.906;2023-05-10T12:57:55;10.57;;;1.30;;
70369;SDS011;57790;51.356;-2.906;2023-05-10T13:00:56;10.83;;;1.23;;
70369;SDS011;57790;51.356;-2.906;2023-05-10T13:03:57;8.38;;;0.90;;
70369;SDS011;57790;51.356;-2.906;2023-05-10T13:06:57;7.57;;;1.00;;
70369;SDS011;57790;51.356;-2.906;2023-05-10T13:09:58;9.95;;;1.33;;
70369;SDS011;57790;51.356;-2.906;2023-05-10T13:12:59;7.43;;;0.87;;
70369;SDS011;57790;51.356;-2.906;2023-05-10T13:15:59;8.03;;;1.00;;
70369;SDS011;57790;51.356;-2.906;2023-05-10T13:19:00;6.10;;;0.75;;
70369;SDS011;57790;51.356;-2.906;2023-05-10T13:22:00;9.20;;;1.30;;
70369;SDS011;57790;51.356;-2.906;2023-05-10T13:25:01;4.73;;;0.93;;
70369;SDS011;57790;51.356;-2.906;2023-05-10T13:28:02;7.75;;;1.10;;
70369;SDS011;57790;51.356;-2.906;2023-05-10T13:31:02;6.70;;;0.90;;
70369;SDS011;57790;51.356;-2.906;2023-05-10T13:34:03;5.17;;;0.70;;
70369;SDS011;57790;51.356;-2.906;2023-05-10T13:37:03;9.57;;;0.95;;
70369;SDS011;57790;51.356;-2.906;2023-05-10T13:40:04;7.50;;;0.90;;
70369;SDS011;57790;51.356;-2.906;2023-05-10T13:43:05;6.40;;;0.70;;
70369;SDS011;57790;51.356;-2.906;2023-05-10T13:46:05;6.17;;;0.77;;
70369;SDS011;57790;51.356;-2.906;2023-05-10T13:49:06;6.90;;;0.93;;
70369;SDS011;57790;51.356;-2.906;2023-05-10T13:52:06;6.47;;;0.83;;
70369;SDS011;57790;51.356;-2.906;2023-05-10T13:55:07;7.13;;;0.90;;
70369;SDS011;57790;51.356;-2.906;2023-05-10T13:58:07;3.43;;;0.60;;
70369;SDS011;57790;51.356;-2.906;2023-05-10T14:01:08;6.18;;;0.80;;
70369;SDS011;57790;51.356;-2.906;2023-05-10T14:04:08;9.47;;;1.20;;
70369;SDS011;57790;51.356;-2.906;2023-05-10T14:07:10;4.90;;;0.75;;
70369;SDS011;57790;51.356;-2.906;2023-05-10T14:10:11;3.53;;;0.80;;
70369;SDS011;57790;51.356;-2.906;2023-05-10T14:13:11;10.10;;;1.00;;
70369;SDS011;57790;51.356;-2.906;2023-05-10T14:16:12;6.43;;;0.75;;
70369;SDS011;57790;51.356;-2.906;2023-05-10T14:19:14;7.10;;;0.85;;
70369;SDS011;57790;51.356;-2.906;2023-05-10T14:22:14;5.20;;;0.90;;
70369;SDS011;57790;51.356;-2.906;2023-05-10T14:25:15;5.63;;;0.80;;
70369;SDS011;57790;51.356;-2.906;2023-05-10T14:28:16;8.27;;;1.00;;
70369;SDS011;57790;51.356;-2.906;2023-05-10T14:31:17;6.22;;;0.90;;
70369;SDS011;57790;51.356;-2.906;2023-05-10T14:34:20;6.00;;;0.70;;
70369;SDS011;57790;51.356;-2.906;2023-05-10T14:37:20;4.67;;;0.70;;
70369;SDS011;57790;51.356;-2.906;2023-05-10T14:40:21;5.07;;;0.60;;
70369;SDS011;57790;51.356;-2.906;2023-05-10T14:43:21;5.37;;;0.63;;
70369;SDS011;57790;51.356;-2.906;2023-05-10T14:46:22;7.93;;;0.87;;
70369;SDS011;57790;51.356;-2.906;2023-05-10T14:49:22;5.77;;;0.60;;
70369;SDS011;57790;51.356;-2.906;2023-05-10T14:52:25;6.30;;;0.93;;
70369;SDS011;57790;51.356;-2.906;2023-05-10T14:55:25;9.00;;;1.20;;
70369;SDS011;57790;51.356;-2.906;2023-05-10T14:58:26;4.37;;;0.70;;
70369;SDS011;57790;51.356;-2.906;2023-05-10T15:01:27;6.07;;;0.68;;
70369;SDS011;57790;51.356;-2.906;2023-05-10T15:04:27;4.23;;;0.60;;
70369;SDS011;57790;51.356;-2.906;2023-05-10T15:07:28;6.00;;;0.73;;
70369;SDS011;57790;51.356;-2.906;2023-05-10T15:10:28;8.87;;;0.80;;
70369;SDS011;57790;51.356;-2.906;2023-05-10T15:13:29;6.10;;;0.70;;
70369;SDS011;57790;51.356;-2.906;2023-05-10T15:16:29;5.80;;;0.65;;
70369;SDS011;57790;51.356;-2.906;2023-05-10T15:19:30;7.43;;;0.80;;
70369;SDS011;57790;51.356;-2.906;2023-05-10T15:22:30;6.90;;;0.73;;
70369;SDS011;57790;51.356;-2.906;2023-05-10T15:25:31;6.43;;;0.80;;
70369;SDS011;57790;51.356;-2.906;2023-05-10T15:28:34;5.13;;;0.90;;
70369;SDS011;57790;51.356;-2.906;2023-05-10T15:31:35;4.43;;;0.73;;
70369;SDS011;57790;51.356;-2.906;2023-05-10T15:34:36;3.57;;;0.63;;
70369;SDS011;57790;51.356;-2.906;2023-05-10T15:37:36;4.93;;;0.73;;
70369;SDS011;57790;51.356;-2.906;2023-05-10T15:40:37;6.73;;;1.10;;
70369;SDS011;57790;51.356;-2.906;2023-05-10T15:43:38;3.47;;;0.60;;
70369;SDS011;57790;51.356;-2.906;2023-05-10T15:46:38;4.57;;;0.70;;
70369;SDS011;57790;51.356;-2.906;2023-05-10T15:49:38;5.13;;;0.97;;
70369;SDS011;57790;51.356;-2.906;2023-05-10T15:52:39;3.40;;;0.67;;
70369;SDS011;57790;51.356;-2.906;2023-05-10T15:55:39;3.27;;;0.47;;
70369;SDS011;57790;51.356;-2.906;2023-05-10T15:58:40;7.60;;;0.70;;
70369;SDS011;57790;51.356;-2.906;2023-05-10T16:01:41;8.20;;;0.73;;
70369;SDS011;57790;51.356;-2.906;2023-05-10T16:04:41;5.07;;;0.77;;
70369;SDS011;57790;51.356;-2.906;2023-05-10T16:07:43;4.70;;;0.53;;
70369;SDS011;57790;51.356;-2.906;2023-05-10T16:10:43;8.37;;;0.87;;
70369;SDS011;57790;51.356;-2.906;2023-05-10T16:13:44;5.03;;;0.80;;
70369;SDS011;57790;51.356;-2.906;2023-05-10T16:16:44;4.97;;;0.60;;
70369;SDS011;57790;51.356;-2.906;2023-05-10T16:19:45;6.27;;;0.80;;
70369;SDS011;57790;51.356;-2.906;2023-05-10T16:22:46;5.15;;;0.70;;
70369;SDS011;57790;51.356;-2.906;2023-05-10T16:25:46;5.77;;;0.60;;
70369;SDS011;57790;51.356;-2.906;2023-05-10T16:28:47;7.75;;;0.82;;
70369;SDS011;57790;51.356;-2.906;2023-05-10T16:31:48;7.50;;;1.17;;
70369;SDS011;57790;51.356;-2.906;2023-05-10T16:34:48;3.87;;;0.70;;
70369;SDS011;57790;51.356;-2.906;2023-05-10T16:37:49;7.43;;;1.13;;
70369;SDS011;57790;51.356;-2.906;2023-05-10T16:40:50;9.18;;;1.33;;
70369;SDS011;57790;51.356;-2.906;2023-05-10T16:43:50;6.77;;;0.80;;
70369;SDS011;57790;51.356;-2.906;2023-05-10T16:46:51;6.80;;;1.37;;
70369;SDS011;57790;51.356;-2.906;2023-05-10T16:49:52;8.95;;;1.10;;
70369;SDS011;57790;51.356;-2.906;2023-05-10T16:52:52;7.60;;;0.80;;
70369;SDS011;57790;51.356;-2.906;2023-05-10T16:55:52;7.80;;;0.87;;
70369;SDS011;57790;51.356;-2.906;2023-05-10T16:58:53;7.28;;;1.20;;
70369;SDS011;57790;51.356;-2.906;2023-05-10T17:01:53;7.50;;;1.00;;
70369;SDS011;57790;51.356;-2.906;2023-05-10T17:04:54;6.97;;;1.00;;
70369;SDS011;57790;51.356;-2.906;2023-05-10T17:07:55;9.32;;;1.08;;
70369;SDS011;57790;51.356;-2.906;2023-05-10T17:10:55;9.63;;;0.80;;
70369;SDS011;57790;51.356;-2.906;2023-05-10T17:13:57;6.27;;;1.00;;
70369;SDS011;57790;51.356;-2.906;2023-05-10T17:16:58;8.85;;;0.90;;
70369;SDS011;57790;51.356;-2.906;2023-05-10T17:19:58;7.43;;;0.77;;
70369;SDS011;57790;51.356;-2.906;2023-05-10T17:22:59;9.32;;;1.20;;
70369;SDS011;57790;51.356;-2.906;2023-05-10T17:26:05;9.98;;;1.00;;
70369;SDS011;57790;51.356;-2.906;2023-05-10T17:29:05;7.37;;;0.80;;
70369;SDS011;57790;51.356;-2.906;2023-05-10T17:32:06;8.68;;;1.17;;
70369;SDS011;57790;51.356;-2.906;2023-05-10T17:35:08;7.37;;;1.10;;
70369;SDS011;57790;51.356;-2.906;2023-05-10T17:38:08;7.90;;;1.40;;
70369;SDS011;57790;51.356;-2.906;2023-05-10T17:41:09;7.03;;;1.00;;
70369;SDS011;57790;51.356;-2.906;2023-05-10T17:44:10;7.67;;;1.40;;
70369;SDS011;57790;51.356;-2.906;2023-05-10T17:47:12;5.10;;;0.90;;
70369;SDS011;57790;51.356;-2.906;2023-05-10T17:50:12;6.37;;;0.80;;
70369;SDS011;57790;51.356;-2.906;2023-05-10T17:53:12;7.03;;;0.93;;
70369;SDS011;57790;51.356;-2.906;2023-05-10T17:56:13;11.67;;;1.03;;
70369;SDS011;57790;51.356;-2.906;2023-05-10T17:59:13;7.13;;;0.83;;
70369;SDS011;57790;51.356;-2.906;2023-05-10T18:02:14;7.90;;;0.90;;
70369;SDS011;57790;51.356;-2.906;2023-05-10T18:05:14;7.30;;;0.83;;
70369;SDS011;57790;51.356;-2.906;2023-05-10T18:08:14;7.20;;;1.05;;
70369;SDS011;57790;51.356;-2.906;2023-05-10T18:11:21;9.83;;;1.27;;
70369;SDS011;57790;51.356;-2.906;2023-05-10T18:14:21;7.70;;;0.82;;
70369;SDS011;57790;51.356;-2.906;2023-05-10T18:17:22;7.13;;;0.97;;
70369;SDS011;57790;51.356;-2.906;2023-05-10T18:20:22;6.47;;;0.97;;